sensor_id;sensor_type;location;lat;lon;timestamp;temperature;humidity
32502;DHT22;18952;52.516;13.460;2022-12-05T00:01:29;3.30;99.90
32502;DHT22;18952;52.516;13.460;2022-12-05T00:03:59;3.30;99.90
32502;DHT22;18952;52.516;13.460;2022-12-05T00:06:27;3.20;99.90
32502;DHT22;18952;52.516;13.460;2022-12-05T00:08:55;3.30;99.90
32502;DHT22;18952;52.516;13.460;2022-12-05T00:11:27;3.20;99.90
32502;DHT22;18952;52.516;13.460;2022-12-05T00:13:56;3.30;99.90
32502;DHT22;18952;52.516;13.460;2022-12-05T00:16:25;3.30;99.90
32502;DHT22;18952;52.516;13.460;2022-12-05T00:18:52;3.30;99.90
32502;DHT22;18952;52.516;13.460;2022-12-05T00:21:21;3.30;99.90
32502;DHT22;18952;52.516;13.460;2022-12-05T00:23:49;3.30;99.90
32502;DHT22;18952;52.516;13.460;2022-12-05T00:26:16;3.20;99.90
32502;DHT22;18952;52.516;13.460;2022-12-05T00:28:44;3.20;99.90
32502;DHT22;18952;52.516;13.460;2022-12-05T00:31:20;3.20;99.90
32502;DHT22;18952;52.516;13.460;2022-12-05T00:33:48;3.20;99.90
32502;DHT22;18952;52.516;13.460;2022-12-05T00:36:18;3.30;99.90
32502;DHT22;18952;52.516;13.460;2022-12-05T00:38:45;3.30;99.90
32502;DHT22;18952;52.516;13.460;2022-12-05T00:41:14;3.30;99.90
32502;DHT22;18952;52.516;13.460;2022-12-05T00:43:42;3.30;99.90
32502;DHT22;18952;52.516;13.460;2022-12-05T00:46:12;3.30;99.90
32502;DHT22;18952;52.516;13.460;2022-12-05T00:48:39;3.30;99.90
32502;DHT22;18952;52.516;13.460;2022-12-05T00:51:13;3.30;99.90
32502;DHT22;18952;52.516;13.460;2022-12-05T00:53:41;3.30;99.90
32502;DHT22;18952;52.516;13.460;2022-12-05T00:56:10;3.30;99.90
32502;DHT22;18952;52.516;13.460;2022-12-05T00:58:37;3.40;99.90
32502;DHT22;18952;52.516;13.460;2022-12-05T01:01:10;3.40;99.90
32502;DHT22;18952;52.516;13.460;2022-12-05T01:03:38;3.40;99.90
32502;DHT22;18952;52.516;13.460;2022-12-05T01:06:05;3.40;99.90
32502;DHT22;18952;52.516;13.460;2022-12-05T01:08:33;3.40;99.90
32502;DHT22;18952;52.516;13.460;2022-12-05T01:11:01;3.40;99.90
32502;DHT22;18952;52.516;13.460;2022-12-05T01:13:28;3.40;99.90
32502;DHT22;18952;52.516;13.460;2022-12-05T01:15:55;3.40;99.90
32502;DHT22;18952;52.516;13.460;2022-12-05T01:18:23;3.40;99.90
32502;DHT22;18952;52.516;13.460;2022-12-05T01:20:50;3.40;99.90
32502;DHT22;18952;52.516;13.460;2022-12-05T01:23:17;3.40;99.90
32502;DHT22;18952;52.516;13.460;2022-12-05T01:25:46;3.40;99.90
32502;DHT22;18952;52.516;13.460;2022-12-05T01:28:14;3.40;99.90
32502;DHT22;18952;52.516;13.460;2022-12-05T01:30:44;3.40;99.90
32502;DHT22;18952;52.516;13.460;2022-12-05T01:33:11;3.40;99.90
32502;DHT22;18952;52.516;13.460;2022-12-05T01:35:38;3.40;99.90
32502;DHT22;18952;52.516;13.460;2022-12-05T01:38:06;3.40;99.90
32502;DHT22;18952;52.516;13.460;2022-12-05T01:40:34;3.50;99.90
32502;DHT22;18952;52.516;13.460;2022-12-05T01:43:01;3.40;99.90
32502;DHT22;18952;52.516;13.460;2022-12-05T01:45:34;3.40;99.90
32502;DHT22;18952;52.516;13.460;2022-12-05T01:48:05;3.40;99.90
32502;DHT22;18952;52.516;13.460;2022-12-05T01:50:34;3.40;99.90
32502;DHT22;18952;52.516;13.460;2022-12-05T01:53:02;3.40;99.90
32502;DHT22;18952;52.516;13.460;2022-12-05T01:55:30;3.40;99.90
32502;DHT22;18952;52.516;13.460;2022-12-05T01:57:57;3.30;99.90
32502;DHT22;18952;52.516;13.460;2022-12-05T02:00:25;3.40;99.90
32502;DHT22;18952;52.516;13.460;2022-12-05T02:02:55;3.30;99.90
32502;DHT22;18952;52.516;13.460;2022-12-05T02:07:54;3.30;99.90
32502;DHT22;18952;52.516;13.460;2022-12-05T02:10:21;3.30;99.90
32502;DHT22;18952;52.516;13.460;2022-12-05T02:12:49;3.40;99.90
32502;DHT22;18952;52.516;13.460;2022-12-05T02:15:41;3.40;99.90
32502;DHT22;18952;52.516;13.460;2022-12-05T02:23:56;3.40;99.90
32502;DHT22;18952;52.516;13.460;2022-12-05T02:26:41;3.40;99.90
32502;DHT22;18952;52.516;13.460;2022-12-05T02:29:36;3.40;99.90
32502;DHT22;18952;52.516;13.460;2022-12-05T02:32:28;3.40;99.90
32502;DHT22;18952;52.516;13.460;2022-12-05T02:37:41;3.40;99.90
32502;DHT22;18952;52.516;13.460;2022-12-05T02:40:14;3.40;99.90
32502;DHT22;18952;52.516;13.460;2022-12-05T02:42:52;3.40;99.90
32502;DHT22;18952;52.516;13.460;2022-12-05T02:45:21;3.40;99.90
32502;DHT22;18952;52.516;13.460;2022-12-05T02:47:51;3.40;99.90
32502;DHT22;18952;52.516;13.460;2022-12-05T02:50:21;3.40;99.90
32502;DHT22;18952;52.516;13.460;2022-12-05T02:52:51;3.40;99.90
32502;DHT22;18952;52.516;13.460;2022-12-05T02:55:20;3.40;99.90
32502;DHT22;18952;52.516;13.460;2022-12-05T02:57:52;3.40;99.90
32502;DHT22;18952;52.516;13.460;2022-12-05T03:00:20;3.40;99.90
32502;DHT22;18952;52.516;13.460;2022-12-05T03:02:47;3.40;99.90
32502;DHT22;18952;52.516;13.460;2022-12-05T03:05:29;3.40;99.90
32502;DHT22;18952;52.516;13.460;2022-12-05T03:07:59;3.40;99.90
32502;DHT22;18952;52.516;13.460;2022-12-05T03:10:32;3.40;99.90
32502;DHT22;18952;52.516;13.460;2022-12-05T03:13:04;3.40;99.90
32502;DHT22;18952;52.516;13.460;2022-12-05T03:15:40;3.40;99.90
32502;DHT22;18952;52.516;13.460;2022-12-05T03:20:48;3.40;99.90
32502;DHT22;18952;52.516;13.460;2022-12-05T03:23:37;3.40;99.90
32502;DHT22;18952;52.516;13.460;2022-12-05T03:50:48;3.40;99.90
32502;DHT22;18952;52.516;13.460;2022-12-05T03:53:21;3.40;99.90
32502;DHT22;18952;52.516;13.460;2022-12-05T03:56:29;3.40;99.90
32502;DHT22;18952;52.516;13.460;2022-12-05T03:59:12;3.40;99.90
32502;DHT22;18952;52.516;13.460;2022-12-05T04:01:41;3.40;99.90
32502;DHT22;18952;52.516;13.460;2022-12-05T04:04:17;3.40;99.90
32502;DHT22;18952;52.516;13.460;2022-12-05T04:06:49;3.40;99.90
32502;DHT22;18952;52.516;13.460;2022-12-05T04:09:25;3.40;99.90
32502;DHT22;18952;52.516;13.460;2022-12-05T04:12:05;3.40;99.90
32502;DHT22;18952;52.516;13.460;2022-12-05T04:14:40;3.40;99.90
32502;DHT22;18952;52.516;13.460;2022-12-05T04:20:12;3.40;99.90
32502;DHT22;18952;52.516;13.460;2022-12-05T04:22:41;3.40;99.90
32502;DHT22;18952;52.516;13.460;2022-12-05T04:25:11;3.40;99.90
32502;DHT22;18952;52.516;13.460;2022-12-05T04:30:34;3.40;99.90
32502;DHT22;18952;52.516;13.460;2022-12-05T04:35:39;3.40;99.90
32502;DHT22;18952;52.516;13.460;2022-12-05T04:38:22;3.40;99.90
32502;DHT22;18952;52.516;13.460;2022-12-05T04:43:25;3.40;99.90
32502;DHT22;18952;52.516;13.460;2022-12-05T04:45:56;3.40;99.90
32502;DHT22;18952;52.516;13.460;2022-12-05T04:48:26;3.40;99.90
32502;DHT22;18952;52.516;13.460;2022-12-05T04:50:54;3.40;99.90
32502;DHT22;18952;52.516;13.460;2022-12-05T04:53:26;3.40;99.90
32502;DHT22;18952;52.516;13.460;2022-12-05T04:55:57;3.40;99.90
32502;DHT22;18952;52.516;13.460;2022-12-05T04:58:25;3.40;99.90
32502;DHT22;18952;52.516;13.460;2022-12-05T05:01:13;3.40;99.90
32502;DHT22;18952;52.516;13.460;2022-12-05T05:03:54;3.40;99.90
32502;DHT22;18952;52.516;13.460;2022-12-05T05:06:22;3.40;99.90
32502;DHT22;18952;52.516;13.460;2022-12-05T05:08:52;3.40;99.90
32502;DHT22;18952;52.516;13.460;2022-12-05T05:13:47;3.40;99.90
32502;DHT22;18952;52.516;13.460;2022-12-05T05:16:25;3.30;99.90
32502;DHT22;18952;52.516;13.460;2022-12-05T05:18:53;3.30;99.90
32502;DHT22;18952;52.516;13.460;2022-12-05T05:21:26;3.40;99.90
32502;DHT22;18952;52.516;13.460;2022-12-05T05:23:54;3.40;99.90
32502;DHT22;18952;52.516;13.460;2022-12-05T05:26:22;3.40;99.90
32502;DHT22;18952;52.516;13.460;2022-12-05T05:28:50;3.40;99.90
32502;DHT22;18952;52.516;13.460;2022-12-05T05:31:18;3.40;99.90
32502;DHT22;18952;52.516;13.460;2022-12-05T05:33:53;3.40;99.90
32502;DHT22;18952;52.516;13.460;2022-12-05T05:36:21;3.40;99.90
32502;DHT22;18952;52.516;13.460;2022-12-05T05:38:50;3.40;99.90
32502;DHT22;18952;52.516;13.460;2022-12-05T05:41:20;3.40;99.90
32502;DHT22;18952;52.516;13.460;2022-12-05T05:43:49;3.40;99.90
32502;DHT22;18952;52.516;13.460;2022-12-05T05:46:18;3.40;99.90
32502;DHT22;18952;52.516;13.460;2022-12-05T05:48:46;3.40;99.90
32502;DHT22;18952;52.516;13.460;2022-12-05T05:51:15;3.40;99.90
32502;DHT22;18952;52.516;13.460;2022-12-05T05:53:42;3.40;99.90
32502;DHT22;18952;52.516;13.460;2022-12-05T05:56:15;3.40;99.90
32502;DHT22;18952;52.516;13.460;2022-12-05T05:58:53;3.40;99.90
32502;DHT22;18952;52.516;13.460;2022-12-05T06:01:20;3.40;99.90
32502;DHT22;18952;52.516;13.460;2022-12-05T06:03:47;3.40;99.90
32502;DHT22;18952;52.516;13.460;2022-12-05T06:06:14;3.40;99.90
32502;DHT22;18952;52.516;13.460;2022-12-05T06:08:43;3.50;99.90
32502;DHT22;18952;52.516;13.460;2022-12-05T06:11:13;3.50;99.90
32502;DHT22;18952;52.516;13.460;2022-12-05T06:13:40;3.40;99.90
32502;DHT22;18952;52.516;13.460;2022-12-05T06:16:08;3.40;99.90
32502;DHT22;18952;52.516;13.460;2022-12-05T06:18:35;3.40;99.90
32502;DHT22;18952;52.516;13.460;2022-12-05T06:21:03;3.40;99.90
32502;DHT22;18952;52.516;13.460;2022-12-05T06:23:30;3.50;99.90
32502;DHT22;18952;52.516;13.460;2022-12-05T06:25:57;3.50;99.90
32502;DHT22;18952;52.516;13.460;2022-12-05T06:28:24;3.50;99.90
32502;DHT22;18952;52.516;13.460;2022-12-05T06:30:51;3.50;99.90
32502;DHT22;18952;52.516;13.460;2022-12-05T06:33:18;3.50;99.90
32502;DHT22;18952;52.516;13.460;2022-12-05T06:35:45;3.50;99.90
32502;DHT22;18952;52.516;13.460;2022-12-05T06:38:12;3.40;99.90
32502;DHT22;18952;52.516;13.460;2022-12-05T06:40:43;3.50;99.90
32502;DHT22;18952;52.516;13.460;2022-12-05T06:43:10;3.50;99.90
32502;DHT22;18952;52.516;13.460;2022-12-05T06:45:37;3.50;99.90
32502;DHT22;18952;52.516;13.460;2022-12-05T06:48:05;3.50;99.90
32502;DHT22;18952;52.516;13.460;2022-12-05T06:50:32;3.50;99.90
32502;DHT22;18952;52.516;13.460;2022-12-05T06:52:59;3.50;99.90
32502;DHT22;18952;52.516;13.460;2022-12-05T06:55:26;3.50;99.90
32502;DHT22;18952;52.516;13.460;2022-12-05T06:57:53;3.50;99.90
32502;DHT22;18952;52.516;13.460;2022-12-05T07:00:20;3.60;99.90
32502;DHT22;18952;52.516;13.460;2022-12-05T07:02:49;3.60;99.90
32502;DHT22;18952;52.516;13.460;2022-12-05T07:05:16;3.60;99.90
32502;DHT22;18952;52.516;13.460;2022-12-05T07:07:44;3.60;99.90
32502;DHT22;18952;52.516;13.460;2022-12-05T07:10:11;3.60;99.90
32502;DHT22;18952;52.516;13.460;2022-12-05T07:12:38;3.60;99.90
32502;DHT22;18952;52.516;13.460;2022-12-05T07:15:05;3.60;99.90
32502;DHT22;18952;52.516;13.460;2022-12-05T07:17:35;3.60;99.90
32502;DHT22;18952;52.516;13.460;2022-12-05T07:20:03;3.60;99.90
32502;DHT22;18952;52.516;13.460;2022-12-05T07:22:30;3.60;99.90
32502;DHT22;18952;52.516;13.460;2022-12-05T07:24:56;3.60;99.90
32502;DHT22;18952;52.516;13.460;2022-12-05T07:27:23;3.60;99.90
32502;DHT22;18952;52.516;13.460;2022-12-05T07:29:54;3.60;99.90
32502;DHT22;18952;52.516;13.460;2022-12-05T07:32:21;3.60;99.90
32502;DHT22;18952;52.516;13.460;2022-12-05T07:34:47;3.60;99.90
32502;DHT22;18952;52.516;13.460;2022-12-05T07:37:20;3.60;99.90
32502;DHT22;18952;52.516;13.460;2022-12-05T07:39:47;3.60;99.90
32502;DHT22;18952;52.516;13.460;2022-12-05T07:42:14;3.70;99.90
32502;DHT22;18952;52.516;13.460;2022-12-05T07:44:40;3.70;99.90
32502;DHT22;18952;52.516;13.460;2022-12-05T07:47:07;3.70;99.90
32502;DHT22;18952;52.516;13.460;2022-12-05T07:49:34;3.70;99.90
32502;DHT22;18952;52.516;13.460;2022-12-05T07:52:02;3.70;99.90
32502;DHT22;18952;52.516;13.460;2022-12-05T07:54:29;3.70;99.90
32502;DHT22;18952;52.516;13.460;2022-12-05T07:56:55;3.70;99.90
32502;DHT22;18952;52.516;13.460;2022-12-05T07:59:22;3.70;99.90
32502;DHT22;18952;52.516;13.460;2022-12-05T08:01:49;3.70;99.90
32502;DHT22;18952;52.516;13.460;2022-12-05T08:04:16;3.70;99.90
32502;DHT22;18952;52.516;13.460;2022-12-05T08:06:42;3.70;99.90
32502;DHT22;18952;52.516;13.460;2022-12-05T08:09:09;3.70;99.90
32502;DHT22;18952;52.516;13.460;2022-12-05T08:11:36;3.80;99.90
32502;DHT22;18952;52.516;13.460;2022-12-05T08:14:06;3.80;99.90
32502;DHT22;18952;52.516;13.460;2022-12-05T08:16:33;3.70;99.90
32502;DHT22;18952;52.516;13.460;2022-12-05T08:19:03;3.70;99.90
32502;DHT22;18952;52.516;13.460;2022-12-05T08:21:30;3.80;99.90
32502;DHT22;18952;52.516;13.460;2022-12-05T08:23:57;3.80;99.90
32502;DHT22;18952;52.516;13.460;2022-12-05T08:26:27;3.80;99.90
32502;DHT22;18952;52.516;13.460;2022-12-05T08:28:59;3.80;99.90
32502;DHT22;18952;52.516;13.460;2022-12-05T08:31:29;3.70;99.90
32502;DHT22;18952;52.516;13.460;2022-12-05T08:33:57;3.70;99.90
32502;DHT22;18952;52.516;13.460;2022-12-05T08:36:26;3.70;99.90
32502;DHT22;18952;52.516;13.460;2022-12-05T08:38:58;3.80;99.90
32502;DHT22;18952;52.516;13.460;2022-12-05T08:41:25;3.80;99.90
32502;DHT22;18952;52.516;13.460;2022-12-05T08:43:52;3.80;99.90
32502;DHT22;18952;52.516;13.460;2022-12-05T08:46:19;3.80;99.90
32502;DHT22;18952;52.516;13.460;2022-12-05T08:48:46;3.80;99.90
32502;DHT22;18952;52.516;13.460;2022-12-05T08:51:13;3.70;99.90
32502;DHT22;18952;52.516;13.460;2022-12-05T08:53:40;3.70;99.90
32502;DHT22;18952;52.516;13.460;2022-12-05T08:56:11;3.70;99.90
32502;DHT22;18952;52.516;13.460;2022-12-05T08:58:38;3.80;99.90
32502;DHT22;18952;52.516;13.460;2022-12-05T09:01:13;3.80;99.90
32502;DHT22;18952;52.516;13.460;2022-12-05T09:03:41;3.80;99.90
32502;DHT22;18952;52.516;13.460;2022-12-05T09:06:18;3.80;99.90
32502;DHT22;18952;52.516;13.460;2022-12-05T09:08:52;3.80;99.90
32502;DHT22;18952;52.516;13.460;2022-12-05T09:11:22;3.80;99.90
32502;DHT22;18952;52.516;13.460;2022-12-05T09:13:49;3.80;99.90
32502;DHT22;18952;52.516;13.460;2022-12-05T09:16:20;3.80;99.90
32502;DHT22;18952;52.516;13.460;2022-12-05T09:18:49;3.80;99.90
32502;DHT22;18952;52.516;13.460;2022-12-05T09:21:19;3.80;99.90
32502;DHT22;18952;52.516;13.460;2022-12-05T09:23:46;3.90;99.90
32502;DHT22;18952;52.516;13.460;2022-12-05T09:26:15;3.80;99.90
32502;DHT22;18952;52.516;13.460;2022-12-05T09:28:43;3.90;99.90
32502;DHT22;18952;52.516;13.460;2022-12-05T09:31:13;3.80;99.90
32502;DHT22;18952;52.516;13.460;2022-12-05T09:33:40;3.80;99.90
32502;DHT22;18952;52.516;13.460;2022-12-05T09:36:14;3.80;99.90
32502;DHT22;18952;52.516;13.460;2022-12-05T09:38:41;3.80;99.90
32502;DHT22;18952;52.516;13.460;2022-12-05T09:41:44;3.80;99.90
32502;DHT22;18952;52.516;13.460;2022-12-05T09:47:02;3.90;99.90
32502;DHT22;18952;52.516;13.460;2022-12-05T09:49:30;4.00;99.90
32502;DHT22;18952;52.516;13.460;2022-12-05T09:51:59;4.00;99.90
32502;DHT22;18952;52.516;13.460;2022-12-05T09:54:26;4.00;99.90
32502;DHT22;18952;52.516;13.460;2022-12-05T09:56:53;4.00;99.90
32502;DHT22;18952;52.516;13.460;2022-12-05T09:59:20;4.00;99.90
32502;DHT22;18952;52.516;13.460;2022-12-05T10:04:54;4.00;99.90
32502;DHT22;18952;52.516;13.460;2022-12-05T10:07:33;4.00;99.90
32502;DHT22;18952;52.516;13.460;2022-12-05T10:13:11;4.00;99.90
32502;DHT22;18952;52.516;13.460;2022-12-05T10:15:49;4.00;99.90
32502;DHT22;18952;52.516;13.460;2022-12-05T10:18:43;4.10;99.90
32502;DHT22;18952;52.516;13.460;2022-12-05T10:21:49;4.10;99.90
32502;DHT22;18952;52.516;13.460;2022-12-05T10:24:29;4.10;99.90
32502;DHT22;18952;52.516;13.460;2022-12-05T10:27:01;4.10;99.90
32502;DHT22;18952;52.516;13.460;2022-12-05T10:29:39;4.10;99.90
32502;DHT22;18952;52.516;13.460;2022-12-05T10:32:14;4.10;99.90
32502;DHT22;18952;52.516;13.460;2022-12-05T10:34:43;4.10;99.90
32502;DHT22;18952;52.516;13.460;2022-12-05T10:37:12;4.10;99.90
32502;DHT22;18952;52.516;13.460;2022-12-05T10:39:40;4.10;99.90
32502;DHT22;18952;52.516;13.460;2022-12-05T10:42:12;4.10;99.90
32502;DHT22;18952;52.516;13.460;2022-12-05T10:44:41;4.10;99.90
32502;DHT22;18952;52.516;13.460;2022-12-05T10:47:08;4.10;99.90
32502;DHT22;18952;52.516;13.460;2022-12-05T10:49:36;4.10;99.90
32502;DHT22;18952;52.516;13.460;2022-12-05T10:52:04;4.10;99.90
32502;DHT22;18952;52.516;13.460;2022-12-05T10:54:38;4.20;99.90
32502;DHT22;18952;52.516;13.460;2022-12-05T10:57:26;4.20;99.90
32502;DHT22;18952;52.516;13.460;2022-12-05T10:59:53;4.20;99.90
32502;DHT22;18952;52.516;13.460;2022-12-05T11:02:27;4.10;99.90
32502;DHT22;18952;52.516;13.460;2022-12-05T11:04:55;4.10;99.90
32502;DHT22;18952;52.516;13.460;2022-12-05T11:07:46;4.20;99.90
32502;DHT22;18952;52.516;13.460;2022-12-05T11:10:31;4.20;99.90
32502;DHT22;18952;52.516;13.460;2022-12-05T11:13:00;4.20;99.90
32502;DHT22;18952;52.516;13.460;2022-12-05T11:15:30;4.20;99.90
32502;DHT22;18952;52.516;13.460;2022-12-05T11:20:52;4.20;99.90
32502;DHT22;18952;52.516;13.460;2022-12-05T11:23:27;4.20;99.90
32502;DHT22;18952;52.516;13.460;2022-12-05T11:25:56;4.20;99.90
32502;DHT22;18952;52.516;13.460;2022-12-05T11:28:32;4.20;99.90
32502;DHT22;18952;52.516;13.460;2022-12-05T11:33:38;4.20;99.90
32502;DHT22;18952;52.516;13.460;2022-12-05T11:38:35;4.10;99.90
32502;DHT22;18952;52.516;13.460;2022-12-05T11:50:05;4.30;99.90
32502;DHT22;18952;52.516;13.460;2022-12-05T11:53:19;4.20;99.90
32502;DHT22;18952;52.516;13.460;2022-12-05T12:06:17;4.20;99.90
32502;DHT22;18952;52.516;13.460;2022-12-05T12:11:50;4.20;99.90
32502;DHT22;18952;52.516;13.460;2022-12-05T12:23:20;4.20;99.90
32502;DHT22;18952;52.516;13.460;2022-12-05T12:28:54;4.20;99.90
32502;DHT22;18952;52.516;13.460;2022-12-05T12:34:26;4.20;99.90
32502;DHT22;18952;52.516;13.460;2022-12-05T12:37:06;4.20;99.90
32502;DHT22;18952;52.516;13.460;2022-12-05T12:48:23;4.20;99.90
32502;DHT22;18952;52.516;13.460;2022-12-05T12:50:53;4.20;99.90
32502;DHT22;18952;52.516;13.460;2022-12-05T12:58:40;4.20;99.90
32502;DHT22;18952;52.516;13.460;2022-12-05T13:01:18;4.20;99.90
32502;DHT22;18952;52.516;13.460;2022-12-05T13:03:58;4.20;99.90
32502;DHT22;18952;52.516;13.460;2022-12-05T13:06:34;4.20;99.90
32502;DHT22;18952;52.516;13.460;2022-12-05T13:09:29;4.20;99.90
32502;DHT22;18952;52.516;13.460;2022-12-05T13:11:55;4.10;99.90
32502;DHT22;18952;52.516;13.460;2022-12-05T13:14:25;4.20;99.90
32502;DHT22;18952;52.516;13.460;2022-12-05T13:16:53;4.20;99.90
32502;DHT22;18952;52.516;13.460;2022-12-05T13:19:26;4.20;99.90
32502;DHT22;18952;52.516;13.460;2022-12-05T13:21:58;4.30;99.90
32502;DHT22;18952;52.516;13.460;2022-12-05T13:24:27;4.30;99.90
32502;DHT22;18952;52.516;13.460;2022-12-05T13:26:58;4.30;99.90
32502;DHT22;18952;52.516;13.460;2022-12-05T13:29:35;4.30;99.90
32502;DHT22;18952;52.516;13.460;2022-12-05T13:32:04;4.30;99.90
32502;DHT22;18952;52.516;13.460;2022-12-05T13:34:49;4.40;99.90
32502;DHT22;18952;52.516;13.460;2022-12-05T13:37:34;4.40;99.90
32502;DHT22;18952;52.516;13.460;2022-12-05T13:40:02;4.40;99.90
32502;DHT22;18952;52.516;13.460;2022-12-05T13:42:29;4.40;99.90
32502;DHT22;18952;52.516;13.460;2022-12-05T13:45:04;4.40;99.90
32502;DHT22;18952;52.516;13.460;2022-12-05T13:58:44;4.30;99.90
32502;DHT22;18952;52.516;13.460;2022-12-05T14:17:26;4.30;99.90
32502;DHT22;18952;52.516;13.460;2022-12-05T14:29:10;4.30;99.90
32502;DHT22;18952;52.516;13.460;2022-12-05T14:34:16;4.40;99.90
32502;DHT22;18952;52.516;13.460;2022-12-05T14:39:52;4.40;99.90
32502;DHT22;18952;52.516;13.460;2022-12-05T14:42:41;4.40;99.90
32502;DHT22;18952;52.516;13.460;2022-12-05T14:48:26;4.40;99.90
32502;DHT22;18952;52.516;13.460;2022-12-05T14:50:53;4.40;99.90
32502;DHT22;18952;52.516;13.460;2022-12-05T14:56:17;4.40;99.90
32502;DHT22;18952;52.516;13.460;2022-12-05T15:01:40;4.40;99.90
32502;DHT22;18952;52.516;13.460;2022-12-05T15:07:12;4.40;99.90
32502;DHT22;18952;52.516;13.460;2022-12-05T15:10:46;4.40;99.90
32502;DHT22;18952;52.516;13.460;2022-12-05T15:21:07;4.40;99.90
32502;DHT22;18952;52.516;13.460;2022-12-05T15:26:16;4.40;99.90
32502;DHT22;18952;52.516;13.460;2022-12-05T15:29:07;4.40;99.90
32502;DHT22;18952;52.516;13.460;2022-12-05T15:34:39;4.40;99.90
32502;DHT22;18952;52.516;13.460;2022-12-05T15:39:58;4.50;99.90
32502;DHT22;18952;52.516;13.460;2022-12-05T15:42:35;4.50;99.90
32502;DHT22;18952;52.516;13.460;2022-12-05T15:47:39;4.50;99.90
32502;DHT22;18952;52.516;13.460;2022-12-05T15:50:37;4.40;99.90
32502;DHT22;18952;52.516;13.460;2022-12-05T15:55:45;4.40;99.90
32502;DHT22;18952;52.516;13.460;2022-12-05T15:58:23;4.50;99.90
32502;DHT22;18952;52.516;13.460;2022-12-05T16:01:14;4.50;99.90
32502;DHT22;18952;52.516;13.460;2022-12-05T16:03:49;4.50;99.90
32502;DHT22;18952;52.516;13.460;2022-12-05T16:06:41;4.40;99.90
32502;DHT22;18952;52.516;13.460;2022-12-05T16:09:17;4.50;99.90
32502;DHT22;18952;52.516;13.460;2022-12-05T16:12:02;4.50;99.90
32502;DHT22;18952;52.516;13.460;2022-12-05T16:14:35;4.50;99.90
32502;DHT22;18952;52.516;13.460;2022-12-05T16:17:23;4.50;99.90
32502;DHT22;18952;52.516;13.460;2022-12-05T16:19:50;4.50;99.90
32502;DHT22;18952;52.516;13.460;2022-12-05T16:22:28;4.50;99.90
32502;DHT22;18952;52.516;13.460;2022-12-05T16:25:00;4.50;99.90
32502;DHT22;18952;52.516;13.460;2022-12-05T16:27:36;4.50;99.90
32502;DHT22;18952;52.516;13.460;2022-12-05T16:32:40;4.50;99.90
32502;DHT22;18952;52.516;13.460;2022-12-05T16:45:44;4.50;99.90
32502;DHT22;18952;52.516;13.460;2022-12-05T16:48:21;4.50;99.90
32502;DHT22;18952;52.516;13.460;2022-12-05T16:50:50;4.50;99.90
32502;DHT22;18952;52.516;13.460;2022-12-05T16:53:21;4.50;99.90
32502;DHT22;18952;52.516;13.460;2022-12-05T16:55:48;4.50;99.90
32502;DHT22;18952;52.516;13.460;2022-12-05T16:58:20;4.50;99.90
32502;DHT22;18952;52.516;13.460;2022-12-05T17:00:48;4.50;99.90
32502;DHT22;18952;52.516;13.460;2022-12-05T17:03:17;4.50;99.90
32502;DHT22;18952;52.516;13.460;2022-12-05T17:06:01;4.50;99.90
32502;DHT22;18952;52.516;13.460;2022-12-05T17:08:28;4.50;99.90
32502;DHT22;18952;52.516;13.460;2022-12-05T17:10:54;4.50;99.90
32502;DHT22;18952;52.516;13.460;2022-12-05T17:13:21;4.40;99.90
32502;DHT22;18952;52.516;13.460;2022-12-05T17:15:48;4.50;99.90
32502;DHT22;18952;52.516;13.460;2022-12-05T17:18:17;4.50;99.90
32502;DHT22;18952;52.516;13.460;2022-12-05T17:20:46;4.50;99.90
32502;DHT22;18952;52.516;13.460;2022-12-05T17:23:14;4.50;99.90
32502;DHT22;18952;52.516;13.460;2022-12-05T17:25:53;4.50;99.90
32502;DHT22;18952;52.516;13.460;2022-12-05T17:28:20;4.50;99.90
32502;DHT22;18952;52.516;13.460;2022-12-05T17:30:47;4.50;99.90
32502;DHT22;18952;52.516;13.460;2022-12-05T17:33:16;4.50;99.90
32502;DHT22;18952;52.516;13.460;2022-12-05T17:35:44;4.50;99.90
32502;DHT22;18952;52.516;13.460;2022-12-05T17:38:11;4.50;99.90
32502;DHT22;18952;52.516;13.460;2022-12-05T17:40:38;4.40;99.90
32502;DHT22;18952;52.516;13.460;2022-12-05T17:43:05;4.40;99.90
32502;DHT22;18952;52.516;13.460;2022-12-05T17:45:32;4.40;99.90
32502;DHT22;18952;52.516;13.460;2022-12-05T17:48:00;4.50;99.90
32502;DHT22;18952;52.516;13.460;2022-12-05T17:50:26;4.50;99.90
32502;DHT22;18952;52.516;13.460;2022-12-05T17:52:55;4.50;99.90
32502;DHT22;18952;52.516;13.460;2022-12-05T17:55:30;4.50;99.90
32502;DHT22;18952;52.516;13.460;2022-12-05T17:57:57;4.50;99.90
32502;DHT22;18952;52.516;13.460;2022-12-05T18:00:24;4.50;99.90
32502;DHT22;18952;52.516;13.460;2022-12-05T18:02:51;4.50;99.90
32502;DHT22;18952;52.516;13.460;2022-12-05T18:05:18;4.50;99.90
32502;DHT22;18952;52.516;13.460;2022-12-05T18:07:44;4.50;99.90
32502;DHT22;18952;52.516;13.460;2022-12-05T18:12:42;4.60;99.90
32502;DHT22;18952;52.516;13.460;2022-12-05T18:15:09;4.60;99.90
32502;DHT22;18952;52.516;13.460;2022-12-05T18:17:39;4.60;99.90
32502;DHT22;18952;52.516;13.460;2022-12-05T18:20:07;4.60;99.90
32502;DHT22;18952;52.516;13.460;2022-12-05T18:22:35;4.60;99.90
32502;DHT22;18952;52.516;13.460;2022-12-05T18:25:02;4.60;99.90
32502;DHT22;18952;52.516;13.460;2022-12-05T18:27:29;4.60;99.90
32502;DHT22;18952;52.516;13.460;2022-12-05T18:29:56;4.60;99.90
32502;DHT22;18952;52.516;13.460;2022-12-05T18:32:23;4.60;99.90
32502;DHT22;18952;52.516;13.460;2022-12-05T18:34:50;4.70;99.90
32502;DHT22;18952;52.516;13.460;2022-12-05T18:37:18;4.60;99.90
32502;DHT22;18952;52.516;13.460;2022-12-05T18:39:44;4.60;99.90
32502;DHT22;18952;52.516;13.460;2022-12-05T18:42:11;4.50;99.90
32502;DHT22;18952;52.516;13.460;2022-12-05T18:44:41;4.50;99.90
32502;DHT22;18952;52.516;13.460;2022-12-05T18:47:10;4.50;99.90
32502;DHT22;18952;52.516;13.460;2022-12-05T18:49:39;4.50;99.90
32502;DHT22;18952;52.516;13.460;2022-12-05T18:52:06;4.40;99.90
32502;DHT22;18952;52.516;13.460;2022-12-05T18:54:32;4.40;99.90
32502;DHT22;18952;52.516;13.460;2022-12-05T18:57:01;4.40;99.90
32502;DHT22;18952;52.516;13.460;2022-12-05T18:59:28;4.40;99.90
32502;DHT22;18952;52.516;13.460;2022-12-05T19:01:57;4.40;99.90
32502;DHT22;18952;52.516;13.460;2022-12-05T19:04:24;4.40;99.90
32502;DHT22;18952;52.516;13.460;2022-12-05T19:07:01;4.40;99.90
32502;DHT22;18952;52.516;13.460;2022-12-05T19:09:29;4.40;99.90
32502;DHT22;18952;52.516;13.460;2022-12-05T19:11:57;4.30;99.90
32502;DHT22;18952;52.516;13.460;2022-12-05T19:14:26;4.30;99.90
32502;DHT22;18952;52.516;13.460;2022-12-05T19:16:54;4.30;99.90
32502;DHT22;18952;52.516;13.460;2022-12-05T19:19:26;4.20;99.90
32502;DHT22;18952;52.516;13.460;2022-12-05T19:21:53;4.20;99.90
32502;DHT22;18952;52.516;13.460;2022-12-05T19:24:20;4.20;99.90
32502;DHT22;18952;52.516;13.460;2022-12-05T19:26:47;4.30;99.90